createdAt,value
2018-02-21T00:01:08.039Z,64.18
2018-02-21T00:03:39.052Z,64.49
2018-02-21T00:06:10.091Z,64.56
2018-02-21T00:08:41.117Z,64.78
2018-02-21T00:11:12.173Z,64.92
2018-02-21T00:13:43.174Z,65.11
2018-02-21T00:16:14.139Z,65.53
2018-02-21T00:18:45.132Z,65.65
2018-02-21T00:21:16.094Z,65.48
2018-02-21T00:23:47.136Z,65.37
2018-02-21T00:26:18.088Z,65.56
2018-02-21T00:28:49.140Z,65.79
2018-02-21T00:31:20.125Z,65.69
2018-02-21T00:33:51.152Z,65.81
2018-02-21T00:36:22.186Z,66.16
2018-02-21T00:38:53.259Z,66.14
2018-02-21T00:41:24.237Z,66.25
2018-02-21T00:43:55.247Z,66.28
2018-02-21T00:46:26.256Z,66.63
2018-02-21T00:48:57.236Z,66.77
2018-02-21T00:51:28.274Z,67.13
2018-02-21T00:53:59.317Z,67.57
2018-02-21T00:56:30.306Z,67.14
2018-02-21T00:59:01.362Z,66.89
2018-02-21T01:01:32.321Z,67.14
2018-02-21T01:04:03.289Z,67.30
2018-02-21T01:06:34.337Z,67.51
2018-02-21T01:09:05.285Z,67.44
2018-02-21T01:11:36.321Z,67.37
2018-02-21T01:14:07.283Z,67.55
2018-02-21T01:16:38.354Z,67.81
2018-02-21T01:19:09.309Z,67.74
2018-02-21T01:21:40.353Z,67.93
2018-02-21T01:24:11.342Z,68.23
2018-02-21T01:26:42.320Z,68.76
2018-02-21T01:29:13.383Z,69.21
2018-02-21T01:31:44.387Z,69.29
2018-02-21T01:34:15.360Z,69.27
2018-02-21T01:36:46.339Z,69.48
2018-02-21T01:39:17.324Z,69.58
2018-02-21T01:41:48.344Z,69.61
2018-02-21T01:44:19.324Z,70.24
2018-02-21T01:46:50.316Z,70.09
2018-02-21T01:49:21.320Z,69.86
2018-02-21T01:51:52.346Z,69.93
2018-02-21T01:54:23.371Z,70.07
2018-02-21T01:56:54.323Z,70.08
2018-02-21T01:59:25.343Z,70.11
2018-02-21T02:01:56.329Z,69.76
2018-02-21T02:04:27.321Z,69.61
2018-02-21T02:06:58.315Z,69.54
2018-02-21T02:09:29.362Z,69.80
2018-02-21T02:12:00.339Z,69.65
2018-02-21T02:14:31.325Z,69.71
2018-02-21T02:17:02.354Z,69.45
2018-02-21T02:19:33.360Z,69.33
2018-02-21T02:22:04.363Z,69.10
2018-02-21T02:24:35.293Z,68.90
2018-02-21T02:27:06.337Z,68.88
2018-02-21T02:29:37.320Z,68.84
2018-02-21T02:32:08.496Z,68.62
2018-02-21T02:34:39.473Z,68.61
2018-02-21T02:37:10.443Z,68.47
2018-02-21T02:40:05.455Z,68.51
2018-02-21T02:42:36.496Z,68.95
2018-02-21T02:45:07.521Z,68.93
2018-02-21T02:47:38.507Z,68.97
2018-02-21T02:50:09.532Z,68.86
2018-02-21T02:52:40.486Z,68.94
2018-02-21T02:55:11.467Z,69.08
2018-02-21T02:57:42.421Z,69.19
2018-02-21T03:00:13.453Z,69.24
2018-02-21T03:02:44.424Z,69.47
2018-02-21T03:05:15.438Z,69.49
2018-02-21T03:07:46.415Z,69.40
2018-02-21T03:10:17.384Z,69.60
2018-02-21T03:12:48.368Z,69.52
2018-02-21T03:15:19.348Z,69.35
2018-02-21T03:17:50.331Z,69.26
2018-02-21T03:20:21.300Z,69.00
2018-02-21T03:22:52.289Z,68.77
2018-02-21T03:25:23.286Z,68.43
2018-02-21T03:27:54.271Z,68.29
2018-02-21T03:30:25.241Z,68.12
2018-02-21T03:32:56.244Z,68.15
2018-02-21T03:35:27.198Z,67.80
2018-02-21T03:37:58.151Z,67.52
2018-02-21T03:40:29.147Z,67.30
2018-02-21T03:43:00.131Z,67.01
2018-02-21T03:45:31.136Z,66.95
2018-02-21T03:48:02.127Z,66.63
2018-02-21T03:50:33.153Z,66.40
2018-02-21T03:53:04.159Z,66.09
2018-02-21T03:55:35.149Z,65.71
2018-02-21T03:58:06.155Z,65.50
2018-02-21T04:00:37.132Z,65.35
2018-02-21T04:03:08.137Z,65.32
2018-02-21T04:05:39.137Z,64.98
2018-02-21T04:08:10.140Z,64.84
2018-02-21T04:10:41.137Z,64.48
2018-02-21T04:13:12.134Z,64.26
2018-02-21T04:15:43.578Z,63.76
2018-02-21T04:18:14.548Z,63.61
2018-02-21T04:20:45.533Z,63.50
2018-02-21T04:23:18.192Z,63.34
2018-02-21T04:25:49.195Z,63.20
2018-02-21T04:28:20.192Z,63.23
2018-02-21T04:30:51.215Z,63.20
2018-02-21T04:33:22.157Z,63.29
2018-02-21T04:35:53.162Z,63.12
2018-02-21T04:38:24.148Z,63.36
2018-02-21T04:40:55.195Z,63.43
2018-02-21T04:43:26.211Z,63.84
2018-02-21T04:45:57.265Z,63.94
2018-02-21T04:48:28.202Z,64.01
2018-02-21T04:50:59.210Z,64.20
2018-02-21T04:53:30.293Z,64.32
2018-02-21T04:59:30.939Z,65.11
2018-02-21T05:02:01.955Z,65.19
2018-02-21T05:04:32.980Z,65.08
2018-02-21T05:07:03.961Z,64.93
2018-02-21T05:09:34.999Z,64.81
2018-02-21T05:12:06.051Z,64.78
2018-02-21T05:14:37.009Z,64.68
2018-02-21T05:17:08.030Z,64.61
2018-02-21T05:19:40.705Z,64.48
2018-02-21T05:22:11.672Z,64.69
2018-02-21T05:24:42.700Z,64.98
2018-02-21T05:27:13.710Z,65.17
2018-02-21T05:29:44.777Z,65.29
2018-02-21T05:32:15.759Z,65.46
2018-02-21T05:34:46.891Z,65.54
2018-02-21T05:37:17.942Z,66.13
2018-02-21T05:39:49.046Z,66.28
2018-02-21T05:42:20.107Z,66.32
2018-02-21T05:44:51.095Z,66.72
2018-02-21T05:47:22.109Z,66.95
2018-02-21T05:49:53.084Z,67.24
2018-02-21T05:52:24.082Z,67.01
2018-02-21T05:54:55.032Z,67.11
2018-02-21T05:57:26.015Z,66.99
2018-02-21T05:59:57.030Z,66.77
2018-02-21T06:02:28.014Z,66.79
2018-02-21T06:04:59.047Z,67.00
2018-02-21T06:07:30.021Z,66.87
2018-02-21T06:10:01.024Z,66.82
2018-02-21T06:12:32.004Z,66.94
2018-02-21T06:15:03.012Z,66.66
2018-02-21T06:17:33.987Z,66.69
2018-02-21T06:20:04.973Z,66.51
2018-02-21T06:22:35.935Z,66.38
2018-02-21T06:25:07.018Z,65.97
2018-02-21T06:27:38.030Z,65.66
2018-02-21T06:30:09.020Z,65.29
2018-02-21T06:32:40.020Z,64.72
2018-02-21T06:35:10.986Z,64.10
2018-02-21T06:37:41.989Z,63.49
2018-02-21T06:40:12.930Z,62.53
2018-02-21T06:42:43.961Z,62.24
2018-02-21T06:45:14.939Z,61.59
2018-02-21T06:47:45.949Z,61.37
2018-02-21T06:50:17.002Z,60.42
2018-02-21T06:52:54.853Z,59.74
2018-02-21T06:55:25.823Z,59.28
2018-02-21T06:57:56.810Z,58.93
2018-02-21T07:00:27.848Z,58.43
2018-02-21T07:02:58.827Z,57.97
2018-02-21T07:05:29.856Z,57.75
2018-02-21T07:08:00.845Z,58.51
2018-02-21T07:10:31.839Z,58.07
2018-02-21T07:13:02.827Z,57.65
2018-02-21T07:15:33.865Z,58.10
2018-02-21T07:18:04.818Z,58.16
2018-02-21T07:20:35.797Z,57.62
2018-02-21T07:23:06.814Z,57.86
2018-02-21T07:25:37.838Z,57.72
2018-02-21T07:28:08.827Z,57.43
2018-02-21T07:30:39.834Z,57.34
2018-02-21T07:33:10.872Z,57.27
2018-02-21T07:35:41.887Z,56.83
2018-02-21T07:38:12.906Z,57.00
2018-02-21T07:40:43.993Z,55.57
2018-02-21T07:43:14.997Z,55.85
2018-02-21T07:45:45.969Z,55.84
2018-02-21T07:48:17.021Z,55.65
2018-02-21T07:50:48.036Z,55.23
2018-02-21T07:53:19.067Z,55.23
2018-02-21T07:55:50.086Z,55.13
2018-02-21T07:58:21.102Z,55.71
2018-02-21T08:00:52.100Z,55.77
2018-02-21T08:03:23.130Z,55.86
2018-02-21T08:05:54.096Z,55.44
2018-02-21T08:08:25.110Z,55.30
2018-02-21T08:10:56.176Z,55.01
2018-02-21T08:13:27.211Z,53.60
2018-02-21T08:15:58.196Z,53.09
2018-02-21T08:18:29.205Z,53.17
2018-02-21T08:21:00.200Z,52.17
2018-02-21T08:23:31.165Z,51.10
2018-02-21T08:26:02.180Z,50.06
2018-02-21T08:28:33.158Z,45.40
2018-02-21T08:31:04.165Z,42.93
2018-02-21T08:33:35.160Z,39.85
2018-02-21T08:36:06.152Z,33.58
2018-02-21T08:38:37.176Z,31.66
2018-02-21T08:41:08.232Z,28.97
2018-02-21T08:43:39.294Z,27.31
2018-02-21T08:46:10.332Z,25.17
2018-02-21T08:48:41.311Z,22.81
2018-02-21T08:51:12.263Z,20.55
2018-02-21T08:53:43.280Z,20.48
2018-02-21T08:56:14.278Z,19.60
2018-02-21T08:58:45.258Z,20.89
2018-02-21T09:01:16.270Z,19.56
2018-02-21T09:03:47.253Z,18.69
2018-02-21T09:06:18.306Z,17.28
2018-02-21T09:08:49.329Z,17.68
2018-02-21T09:11:20.368Z,18.47
2018-02-21T09:13:51.347Z,18.10
2018-02-21T09:16:22.355Z,16.79
2018-02-21T09:18:53.370Z,16.89
2018-02-21T09:21:24.408Z,17.38
2018-02-21T09:23:55.422Z,16.58
2018-02-21T09:26:26.363Z,16.58
2018-02-21T09:28:57.361Z,16.25
2018-02-21T09:31:28.348Z,17.12
2018-02-21T09:33:59.314Z,17.73
2018-02-21T09:36:30.303Z,17.52
2018-02-21T09:39:01.295Z,17.80
2018-02-21T09:41:32.332Z,18.72
2018-02-21T09:44:03.287Z,18.07
2018-02-21T09:46:34.230Z,17.80
2018-02-21T09:49:05.245Z,18.35
2018-02-21T09:51:36.265Z,19.13
2018-02-21T09:54:07.271Z,18.85
2018-02-21T09:56:38.238Z,18.04
2018-02-21T09:59:09.244Z,18.40
2018-02-21T10:01:40.186Z,19.01
2018-02-21T10:04:11.143Z,18.78
2018-02-21T10:06:42.140Z,18.79
2018-02-21T10:09:13.222Z,17.94
2018-02-21T10:11:44.235Z,18.22
2018-02-21T10:14:15.263Z,17.98
2018-02-21T10:16:46.242Z,17.77
2018-02-21T10:19:17.204Z,19.47
2018-02-21T10:21:48.254Z,20.02
2018-02-21T10:24:19.269Z,19.20
2018-02-21T10:26:50.220Z,17.97
2018-02-21T10:29:21.239Z,16.18
2018-02-21T10:31:52.233Z,16.63
2018-02-21T10:34:23.232Z,16.12
2018-02-21T10:36:54.225Z,16.11
2018-02-21T10:39:25.193Z,15.57
2018-02-21T10:41:56.159Z,16.71
2018-02-21T10:44:27.138Z,16.33
2018-02-21T10:46:58.125Z,16.24
2018-02-21T10:49:29.150Z,16.51
2018-02-21T10:52:00.150Z,16.79
2018-02-21T10:54:31.118Z,16.62
2018-02-21T10:57:02.112Z,17.50
2018-02-21T10:59:33.178Z,17.97
2018-02-21T11:02:04.179Z,17.21
2018-02-21T11:04:35.226Z,17.62
2018-02-21T11:07:06.230Z,19.22
2018-02-21T11:09:37.246Z,19.79
2018-02-21T11:12:08.244Z,19.62
2018-02-21T11:14:46.221Z,21.21
2018-02-21T11:17:17.242Z,22.39
2018-02-21T11:19:48.220Z,21.95
2018-02-21T11:22:19.216Z,21.96
2018-02-21T11:24:50.250Z,22.01
2018-02-21T11:27:21.252Z,21.80
2018-02-21T11:29:52.225Z,21.67
2018-02-21T11:32:23.204Z,23.23
2018-02-21T11:34:54.183Z,24.85
2018-02-21T11:37:25.175Z,26.79
2018-02-21T11:39:56.144Z,27.98
2018-02-21T11:42:27.164Z,28.72
2018-02-21T11:44:58.152Z,29.50
2018-02-21T11:47:29.181Z,29.95
2018-02-21T11:50:00.189Z,31.30
2018-02-21T11:52:31.208Z,32.76
2018-02-21T11:55:02.219Z,34.44
2018-02-21T11:57:33.252Z,34.96
2018-02-21T12:00:04.277Z,35.34
2018-02-21T12:02:35.255Z,34.50
2018-02-21T12:05:06.293Z,34.37
2018-02-21T12:07:37.288Z,34.23
2018-02-21T12:10:08.329Z,33.62
2018-02-21T12:12:39.336Z,33.27
2018-02-21T12:15:10.361Z,33.09
2018-02-21T12:17:41.377Z,32.58
2018-02-21T12:20:12.378Z,32.51
2018-02-21T12:22:43.343Z,32.46
2018-02-21T12:25:14.339Z,32.21
2018-02-21T12:27:45.353Z,32.18
2018-02-21T12:30:16.369Z,32.31
2018-02-21T12:32:47.360Z,32.21
2018-02-21T12:35:18.346Z,32.28
2018-02-21T12:37:49.295Z,32.92
2018-02-21T12:40:26.506Z,32.61
2018-02-21T12:42:57.509Z,32.38
2018-02-21T12:45:28.501Z,32.14
2018-02-21T12:47:59.475Z,32.14
2018-02-21T12:50:30.436Z,32.38
2018-02-21T12:53:01.435Z,32.88
2018-02-21T12:55:32.407Z,33.79
2018-02-21T12:58:03.419Z,33.46
2018-02-21T13:00:34.419Z,32.88
2018-02-21T13:03:05.472Z,34.16
2018-02-21T13:05:36.420Z,34.71
2018-02-21T13:08:07.450Z,34.81
2018-02-21T13:10:38.500Z,35.53
2018-02-21T13:13:09.486Z,34.33
2018-02-21T13:15:40.523Z,34.22
2018-02-21T13:18:11.527Z,33.58
2018-02-21T13:20:42.543Z,33.01
2018-02-21T13:23:13.562Z,32.33
2018-02-21T13:25:44.585Z,32.86
2018-02-21T13:28:15.567Z,33.59
2018-02-21T13:30:46.597Z,34.91
2018-02-21T13:33:17.601Z,35.32
2018-02-21T13:35:48.618Z,34.08
2018-02-21T13:38:19.653Z,34.42
2018-02-21T13:40:50.665Z,35.27
2018-02-21T13:43:21.661Z,35.17
2018-02-21T13:45:52.694Z,34.61
2018-02-21T13:48:23.703Z,34.32
2018-02-21T13:50:54.683Z,34.22
2018-02-21T13:53:25.701Z,35.01
2018-02-21T13:55:56.766Z,34.77
2018-02-21T13:58:27.772Z,35.03
2018-02-21T14:00:58.796Z,34.89
2018-02-21T14:03:29.807Z,34.87
2018-02-21T14:06:00.834Z,34.34
2018-02-21T14:08:31.848Z,34.76
2018-02-21T14:11:02.880Z,35.65
2018-02-21T14:13:33.873Z,35.58
2018-02-21T14:16:04.872Z,35.96
2018-02-21T14:18:35.895Z,36.19
2018-02-21T14:21:06.868Z,37.05
2018-02-21T14:23:37.873Z,36.48
2018-02-21T14:26:08.852Z,35.82
2018-02-21T14:28:39.865Z,35.00
2018-02-21T14:31:10.827Z,35.37
2018-02-21T14:33:41.844Z,35.49
2018-02-21T14:36:12.870Z,35.84
2018-02-21T14:38:43.866Z,35.92
2018-02-21T14:41:14.879Z,35.92
2018-02-21T14:43:45.899Z,35.33
2018-02-21T14:46:16.887Z,35.58
2018-02-21T14:48:47.865Z,36.13
2018-02-21T14:51:18.894Z,35.75
2018-02-21T14:53:49.880Z,36.16
2018-02-21T14:56:20.923Z,36.83
2018-02-21T14:58:51.896Z,37.03
2018-02-21T15:01:22.939Z,37.17
2018-02-21T15:03:53.967Z,36.92
2018-02-21T15:06:24.938Z,36.65
2018-02-21T15:08:55.883Z,36.59
2018-02-21T15:11:26.859Z,36.97
2018-02-21T15:13:57.874Z,36.66
2018-02-21T15:16:28.878Z,37.04
2018-02-21T15:18:59.913Z,37.10
2018-02-21T15:21:30.906Z,36.59
2018-02-21T15:24:01.907Z,37.13
2018-02-21T15:26:32.904Z,36.24
2018-02-21T15:29:03.844Z,35.19
2018-02-21T15:31:34.829Z,34.96
2018-02-21T15:34:05.817Z,34.41
2018-02-21T15:36:36.882Z,34.62
2018-02-21T15:39:07.893Z,34.51
2018-02-21T15:41:38.835Z,35.40
2018-02-21T15:44:09.835Z,35.76
2018-02-21T15:46:40.861Z,35.16
2018-02-21T15:49:11.917Z,33.58
2018-02-21T15:51:42.917Z,33.39
2018-02-21T15:54:13.910Z,33.38
2018-02-21T15:56:44.909Z,33.85
2018-02-21T15:59:15.872Z,34.51
2018-02-21T16:01:46.886Z,34.79
2018-02-21T16:04:17.883Z,34.95
2018-02-21T16:06:48.885Z,35.23
2018-02-21T16:09:19.868Z,35.91
2018-02-21T16:11:50.887Z,35.99
2018-02-21T16:14:21.859Z,36.81
2018-02-21T16:16:52.881Z,36.52
2018-02-21T16:19:23.840Z,37.21
2018-02-21T16:21:54.813Z,36.76
2018-02-21T16:26:56.717Z,37.19
2018-02-21T16:29:27.728Z,37.63
2018-02-21T16:31:58.757Z,37.85
2018-02-21T16:34:29.757Z,37.90
2018-02-21T16:37:00.737Z,38.15
2018-02-21T16:39:31.735Z,38.05
2018-02-21T16:42:02.768Z,38.17
2018-02-21T16:44:33.800Z,38.61
2018-02-21T16:47:04.756Z,38.97
2018-02-21T16:49:35.774Z,39.04
2018-02-21T16:52:06.782Z,38.91
2018-02-21T16:54:37.789Z,39.21
2018-02-21T16:57:09.298Z,39.25
2018-02-21T16:59:40.264Z,39.72
2018-02-21T17:02:11.306Z,39.71
2018-02-21T17:04:42.356Z,40.06
2018-02-21T17:07:13.430Z,40.41
2018-02-21T17:09:44.384Z,40.56
2018-02-21T17:12:15.403Z,40.57
2018-02-21T17:14:53.239Z,40.93
2018-02-21T17:17:24.224Z,41.61
2018-02-21T17:19:55.318Z,41.64
2018-02-21T17:22:26.328Z,41.78
2018-02-21T17:24:57.356Z,41.82
2018-02-21T17:27:28.369Z,42.33
2018-02-21T17:29:59.335Z,42.47
2018-02-21T17:32:30.333Z,42.52
2018-02-21T17:35:01.365Z,42.77
2018-02-21T17:37:32.400Z,42.98
2018-02-21T17:40:03.448Z,43.03
2018-02-21T17:42:34.451Z,43.17
2018-02-21T17:45:05.469Z,43.07
2018-02-21T17:47:36.450Z,42.51
2018-02-21T17:50:07.443Z,42.43
2018-02-21T17:52:38.403Z,42.50
2018-02-21T17:55:09.429Z,42.70
2018-02-21T17:57:40.424Z,42.50
2018-02-21T18:00:11.488Z,42.66
2018-02-21T18:02:42.488Z,42.66
2018-02-21T18:05:13.506Z,42.96
2018-02-21T18:07:44.540Z,42.96
2018-02-21T18:10:15.657Z,43.10
2018-02-21T18:12:46.701Z,43.29
2018-02-21T18:15:17.701Z,43.29
2018-02-21T18:17:48.747Z,43.46
2018-02-21T18:20:19.769Z,43.51
2018-02-21T18:22:52.486Z,43.66
2018-02-21T18:25:23.706Z,43.64
2018-02-21T18:27:54.728Z,43.76
2018-02-21T18:30:25.857Z,44.05
2018-02-21T18:32:57.014Z,44.34
2018-02-21T18:35:28.026Z,44.76
2018-02-21T18:37:58.991Z,45.09
2018-02-21T18:40:29.980Z,45.20
2018-02-21T18:43:01.058Z,45.28
2018-02-21T18:45:32.052Z,45.68
2018-02-21T18:48:03.042Z,45.85
2018-02-21T18:50:34.093Z,46.29
2018-02-21T18:53:05.085Z,46.61
2018-02-21T18:55:36.056Z,46.55
2018-02-21T18:58:07.096Z,46.49
2018-02-21T19:00:38.097Z,46.68
2018-02-21T19:03:09.118Z,46.84
2018-02-21T19:05:40.106Z,47.04
2018-02-21T19:08:11.152Z,47.04
2018-02-21T19:10:42.149Z,47.23
2018-02-21T19:13:13.163Z,47.21
2018-02-21T19:15:44.162Z,47.47
2018-02-21T19:18:15.196Z,47.53
2018-02-21T19:20:46.277Z,47.41
2018-02-21T19:23:17.301Z,47.53
2018-02-21T19:25:48.330Z,47.68
2018-02-21T19:28:19.373Z,48.01
2018-02-21T19:30:50.315Z,48.04
2018-02-21T19:33:21.306Z,48.00
2018-02-21T19:35:52.325Z,47.89
2018-02-21T19:38:23.317Z,47.68
2018-02-21T19:40:54.337Z,47.83
2018-02-21T19:43:25.341Z,47.94
2018-02-21T19:45:56.338Z,47.68
2018-02-21T19:48:27.321Z,48.07
2018-02-21T19:50:58.324Z,48.05
2018-02-21T19:53:29.303Z,48.29
2018-02-21T19:56:00.418Z,48.49
2018-02-21T19:58:31.414Z,48.53
2018-02-21T20:01:02.408Z,48.64
2018-02-21T20:03:33.424Z,48.62
2018-02-21T20:06:04.417Z,48.82
2018-02-21T20:08:35.448Z,48.91
2018-02-21T20:11:06.461Z,48.85
2018-02-21T20:13:37.504Z,48.69
2018-02-21T20:16:08.506Z,48.86
2018-02-21T20:18:39.519Z,48.69
2018-02-21T20:21:10.513Z,48.75
2018-02-21T20:23:41.455Z,48.54
2018-02-21T20:26:12.448Z,48.67
2018-02-21T20:28:43.416Z,48.45
2018-02-21T20:31:14.434Z,48.61
2018-02-21T20:33:45.452Z,48.83
2018-02-21T20:36:16.419Z,48.76
2018-02-21T20:38:47.466Z,48.81
2018-02-21T20:41:18.453Z,49.14
2018-02-21T20:43:49.488Z,49.03
2018-02-21T20:46:20.512Z,48.96
2018-02-21T20:48:51.556Z,49.24
2018-02-21T20:51:22.513Z,49.26
2018-02-21T20:53:53.493Z,49.42
2018-02-21T20:56:24.492Z,49.63
2018-02-21T20:58:55.508Z,49.55
2018-02-21T21:01:26.478Z,49.89
2018-02-21T21:03:57.471Z,49.73
2018-02-21T21:06:28.539Z,50.01
2018-02-21T21:09:03.096Z,49.97
2018-02-21T21:11:34.064Z,50.28
2018-02-21T21:14:05.064Z,50.76
2018-02-21T21:16:36.100Z,50.63
2018-02-21T21:19:07.120Z,50.84
2018-02-21T21:21:38.151Z,50.61
2018-02-21T21:24:09.162Z,51.03
2018-02-21T21:26:40.144Z,50.89
2018-02-21T21:29:11.173Z,51.15
2018-02-21T21:31:42.199Z,51.11
2018-02-21T21:34:13.211Z,50.81
2018-02-21T21:36:44.163Z,50.97
2018-02-21T21:39:15.156Z,50.99
2018-02-21T21:41:46.214Z,51.30
2018-02-21T21:44:17.147Z,51.06
2018-02-21T21:46:48.176Z,51.12
2018-02-21T21:49:19.149Z,51.39
2018-02-21T21:51:50.175Z,51.29
2018-02-21T21:54:21.150Z,50.97
2018-02-21T21:56:52.143Z,51.25
2018-02-21T21:59:23.173Z,51.37
2018-02-21T22:01:54.200Z,51.32
2018-02-21T22:04:25.238Z,51.22
2018-02-21T22:06:56.244Z,51.31
2018-02-21T22:09:27.242Z,51.22
2018-02-21T22:11:58.265Z,51.37
2018-02-21T22:14:29.220Z,51.45
2018-02-21T22:17:00.200Z,51.38
2018-02-21T22:19:31.199Z,51.37
2018-02-21T22:22:02.216Z,51.60
2018-02-21T22:24:33.225Z,51.83
2018-02-21T22:27:04.263Z,51.94
2018-02-21T22:29:35.283Z,52.02
2018-02-21T22:32:06.281Z,52.30
2018-02-21T22:34:37.287Z,52.46
2018-02-21T22:37:08.275Z,52.30
2018-02-21T22:39:39.300Z,52.31
2018-02-21T22:42:10.260Z,52.54
2018-02-21T22:44:41.322Z,52.28
2018-02-21T22:47:12.336Z,52.21
2018-02-21T22:49:43.320Z,52.11
2018-02-21T22:52:14.321Z,52.14
2018-02-21T22:54:45.284Z,52.55
2018-02-21T22:57:16.345Z,52.74
2018-02-21T22:59:47.303Z,52.80
2018-02-21T23:02:18.325Z,53.09
2018-02-21T23:04:49.379Z,53.13
2018-02-21T23:07:20.363Z,53.20
2018-02-21T23:09:51.342Z,53.18
2018-02-21T23:12:22.294Z,53.29
2018-02-21T23:14:53.320Z,53.36
2018-02-21T23:17:24.290Z,53.58
2018-02-21T23:19:55.365Z,53.91
2018-02-21T23:22:26.330Z,54.40
2018-02-21T23:24:57.342Z,54.31
2018-02-21T23:27:28.335Z,54.43
2018-02-21T23:29:59.320Z,54.51
2018-02-21T23:32:30.319Z,54.49
2018-02-21T23:35:01.286Z,54.53
2018-02-21T23:37:32.272Z,54.57
2018-02-21T23:40:03.263Z,54.61
2018-02-21T23:42:34.322Z,54.75
2018-02-21T23:45:05.336Z,54.80
2018-02-21T23:47:36.367Z,54.92
2018-02-21T23:50:07.336Z,54.96
2018-02-21T23:52:38.338Z,55.12
2018-02-21T23:55:09.332Z,54.95
2018-02-21T23:57:40.354Z,55.26
